Time;durP1;ratioP1;P1;durP2;ratioP2;P2;SDS_P1;SDS_P2;PMS_P1;PMS_P2;Temp;Humidity;BMP_temperature;BMP_pressure;BME280_temperature;BME280_humidity;BME280_pressure;Samples;Min_cycle;Max_cycle;Signal;HPM_P1;HPM_P2
2022/09/17 00:01:23;;;;;;;;;;;;;;;10.82;88.98;99445.56;5055406;28;19954;-88
2022/09/17 00:03:54;;;;;;;;;;;;;;;10.99;89.06;99439.78;5055095;28;19909;-88
2022/09/17 00:06:20;;;;;;;;;;;;;;;10.70;89.21;99443.13;5055180;28;19908;-88
2022/09/17 00:08:46;;;;;;;;;;;;;;;10.99;88.88;99450.69;5054044;28;19995;-88
2022/09/17 00:11:12;;;;;;;;;;;;;;;10.86;88.36;99446.66;5055179;28;19917;-88
2022/09/17 00:13:38;;;;;;;;;;;;;;;11.31;87.14;99457.72;5055329;28;19995;-88
2022/09/17 00:16:04;;;;;;;;;;;;;;;11.13;87.60;99448.22;5054647;28;19951;-88
2022/09/17 00:18:29;;;;;;;;;;;;;;;10.76;88.77;99449.38;5054247;28;19916;-88
2022/09/17 00:20:54;;;;;;;;;;;;;;;10.73;88.90;99448.00;5054385;28;19912;-89
2022/09/17 00:23:19;;;;;;;;;;;;;;;10.66;89.68;99447.47;5055179;28;19940;-89
2022/09/17 00:25:45;;;;;;;;;;;;;;;10.88;88.33;99451.81;5055037;28;19964;-89
2022/09/17 00:28:11;;;;;;;;;;;;;;;10.92;88.42;99450.19;5054871;28;19952;-89
2022/09/17 00:30:40;;;;;;;;;;;;;;;10.71;88.68;99447.47;5053490;28;20353;-89
2022/09/17 00:33:06;;;;;;;;;;;;;;;10.93;87.91;99457.25;5054145;28;19970;-88
2022/09/17 00:35:31;;;;;;;;;;;;;;;10.46;89.58;99447.16;5054498;28;19952;-89
2022/09/17 00:37:56;;;;;;;;;;;;;;;10.56;89.26;99448.25;5054877;28;19908;-89
2022/09/17 00:40:22;;;;;;;;;;;;;;;10.71;88.38;99450.19;5041144;28;20000;-89
2022/09/17 00:42:47;;;;;;;;;;;;;;;10.94;87.30;99453.44;5034692;28;19917;-89
2022/09/17 00:45:12;;;;;;;;;;;;;;;10.85;87.84;99445.81;5034924;28;20000;-89
2022/09/17 00:47:40;;;;;;;;;;;;;;;10.61;88.82;99457.28;5034628;28;19916;-89
2022/09/17 00:50:05;;;;;;;;;;;;;;;10.68;87.96;99450.75;5048483;28;19999;-89
2022/09/17 00:52:36;;;;;;;;;;;;;;;10.76;87.95;99450.16;5054668;28;19959;-89
2022/09/17 00:55:06;;;;;;;;;;;;;;;10.93;87.50;99459.97;5053921;28;19944;-88
2022/09/17 00:57:31;;;;;;;;;;;;;;;10.59;88.92;99453.19;5054467;28;19913;-89
2022/09/17 00:59:57;;;;;;;;;;;;;;;10.86;87.98;99452.88;5044118;28;20346;-90
2022/09/17 01:02:22;;;;;;;;;;;;;;;11.14;86.79;99458.03;5034836;28;19956;-89
2022/09/17 01:04:47;;;;;;;;;;;;;;;10.79;87.57;99466.00;5034093;28;19932;-89
2022/09/17 01:07:35;;;;;;;;;;;;;;;10.85;88.20;99473.09;5033886;28;20261;-89
2022/09/17 01:10:19;;;;;;;;;;;;;;;10.67;88.34;99460.81;5051581;28;20383;-88
2022/09/17 01:13:03;;;;;;;;;;;;;;;10.64;89.42;99471.47;5054051;28;19909;-89
2022/09/17 01:15:43;;;;;;;;;;;;;;;10.89;87.68;99472.53;5054286;28;19908;-90
2022/09/17 01:18:08;;;;;;;;;;;;;;;11.01;87.71;99464.06;5053785;28;19916;-90
2022/09/17 01:20:46;;;;;;;;;;;;;;;11.00;87.19;99463.25;5053193;28;19912;-89
2022/09/17 01:23:26;;;;;;;;;;;;;;;10.56;88.57;99464.63;5053163;28;19954;-89
2022/09/17 01:26:09;;;;;;;;;;;;;;;10.86;88.27;99463.78;5054277;28;19916;-88
2022/09/17 01:28:45;;;;;;;;;;;;;;;10.66;88.19;99461.09;5053239;28;19963;-87
2022/09/17 01:31:21;;;;;;;;;;;;;;;10.67;89.26;99470.91;5034262;28;19924;-89
2022/09/17 01:33:49;;;;;;;;;;;;;;;10.72;88.86;99465.44;5034119;28;19951;-88
2022/09/17 01:36:16;;;;;;;;;;;;;;;10.57;89.23;99469.81;5033794;28;20354;-88
2022/09/17 01:38:48;;;;;;;;;;;;;;;10.59;89.54;99467.66;5036823;28;20003;-88
2022/09/17 01:41:29;;;;;;;;;;;;;;;10.74;88.52;99471.44;5034221;28;19913;-90
2022/09/17 01:43:57;;;;;;;;;;;;;;;10.60;88.75;99469.25;5034199;28;19909;-89
2022/09/17 01:46:30;;;;;;;;;;;;;;;10.41;90.19;99470.88;5035666;28;19982;-88
2022/09/17 01:48:58;;;;;;;;;;;;;;;10.62;89.21;99469.81;5063140;28;19994;-88
2022/09/17 01:51:25;;;;;;;;;;;;;;;10.69;89.53;99474.19;5051228;28;20533;-89
2022/09/17 01:53:59;;;;;;;;;;;;;;;10.62;89.06;99472.53;5051267;28;19920;-88
2022/09/17 01:56:57;;;;;;;;;;;;;;;10.45;90.12;99482.84;5054004;28;19961;-89
2022/09/17 01:59:26;;;;;;;;;;;;;;;10.71;89.15;99485.63;5024098;28;19913;-88
2022/09/17 02:01:54;;;;;;;;;;;;;;;10.82;88.56;99483.72;5034064;28;19908;-88
2022/09/17 02:04:26;;;;;;;;;;;;;;;10.69;88.79;99480.47;5033705;28;19951;-88
2022/09/17 02:06:55;;;;;;;;;;;;;;;10.58;89.52;99485.06;5037517;28;19909;-88
2022/09/17 02:09:23;;;;;;;;;;;;;;;10.69;88.97;99479.63;5055429;28;19917;-88
2022/09/17 02:11:51;;;;;;;;;;;;;;;10.79;88.63;99485.09;5057511;28;19909;-88
2022/09/17 02:14:22;;;;;;;;;;;;;;;10.95;88.01;99480.44;5056944;28;20368;-88
2022/09/17 02:16:54;;;;;;;;;;;;;;;10.82;87.73;99478.28;5053147;28;19909;-88
2022/09/17 02:19:24;;;;;;;;;;;;;;;10.59;89.26;99481.28;5055921;28;19912;-88
2022/09/17 02:22:08;;;;;;;;;;;;;;;10.68;89.39;99489.72;5057613;28;19909;-88
2022/09/17 02:24:44;;;;;;;;;;;;;;;10.64;89.62;99488.63;5057440;28;19931;-88
2022/09/17 02:27:25;;;;;;;;;;;;;;;10.74;88.88;99477.72;5057292;28;19948;-88
2022/09/17 02:29:50;;;;;;;;;;;;;;;10.77;89.23;99476.34;5056405;28;19923;-87
2022/09/17 02:32:15;;;;;;;;;;;;;;;10.68;89.61;99483.47;5057234;28;20011;-88
2022/09/17 02:34:41;;;;;;;;;;;;;;;10.72;88.95;99479.06;5056976;28;19912;-87
2022/09/17 02:37:06;;;;;;;;;;;;;;;10.59;89.27;99481.28;5056762;28;19931;-87
2022/09/17 02:39:32;;;;;;;;;;;;;;;10.51;90.06;99479.09;5047097;28;19913;-89
2022/09/17 02:42:09;;;;;;;;;;;;;;;10.46;89.52;99487.22;5036558;28;19936;-88
2022/09/17 02:44:34;;;;;;;;;;;;;;;10.48;89.48;99490.47;5036021;28;19909;-89
2022/09/17 02:47:07;;;;;;;;;;;;;;;10.59;89.39;99483.16;5037096;28;19920;-87
2022/09/17 02:50:13;;;;;;;;;;;;;;;10.60;88.73;99496.53;5046173;28;19920;-89
2022/09/17 02:52:56;;;;;;;;;;;;;;;10.39;89.73;99493.75;5034688;28;19908;-89
2022/09/17 02:55:25;;;;;;;;;;;;;;;10.28;90.75;99489.38;5035004;28;19936;-89
2022/09/17 02:57:50;;;;;;;;;;;;;;;10.54;89.68;99494.88;5048081;28;19950;-89
2022/09/17 03:00:17;;;;;;;;;;;;;;;10.76;89.39;99487.53;5044190;28;19969;-89
2022/09/17 03:02:50;;;;;;;;;;;;;;;10.58;89.45;99495.97;5036681;28;19909;-89
2022/09/17 03:05:17;;;;;;;;;;;;;;;10.60;88.86;99488.34;5036891;28;19916;-89
2022/09/17 03:07:42;;;;;;;;;;;;;;;10.78;88.88;99497.06;5036740;28;20012;-89
2022/09/17 03:10:07;;;;;;;;;;;;;;;10.69;89.27;99491.38;5050946;28;19952;-88
2022/09/17 03:12:33;;;;;;;;;;;;;;;10.48;89.71;99501.38;5056630;28;20414;-89
2022/09/17 03:14:58;;;;;;;;;;;;;;;10.57;89.32;99502.53;5056210;28;19909;-88
2022/09/17 03:17:23;;;;;;;;;;;;;;;10.53;90.05;99498.72;5055663;28;19909;-89
2022/09/17 03:19:49;;;;;;;;;;;;;;;10.56;89.56;99508.22;5054917;28;20361;-90
2022/09/17 03:22:14;;;;;;;;;;;;;;;10.66;88.87;99493.81;5056306;28;19912;-89
2022/09/17 03:24:39;;;;;;;;;;;;;;;10.45;89.51;99497.31;5055975;28;19920;-89
2022/09/17 03:27:04;;;;;;;;;;;;;;;10.61;89.15;99497.34;5055889;28;19912;-88
2022/09/17 03:29:29;;;;;;;;;;;;;;;10.56;88.47;99510.97;5053717;28;19916;-88
2022/09/17 03:31:55;;;;;;;;;;;;;;;10.22;90.13;99506.78;5055578;28;19909;-89
2022/09/17 03:34:20;;;;;;;;;;;;;;;10.26;90.31;99499.72;5055389;28;19916;-89
2022/09/17 03:36:45;;;;;;;;;;;;;;;10.27;89.83;99499.44;5055398;28;19915;-88
2022/09/17 03:39:10;;;;;;;;;;;;;;;10.56;89.50;99500.88;5053653;28;19912;-88
2022/09/17 03:41:36;;;;;;;;;;;;;;;10.65;88.45;99501.19;5055228;28;20538;-89
2022/09/17 03:44:01;;;;;;;;;;;;;;;10.59;89.04;99497.63;5055295;28;19908;-88
2022/09/17 03:46:26;;;;;;;;;;;;;;;10.64;88.99;99506.91;5054830;28;19958;-89
2022/09/17 03:48:51;;;;;;;;;;;;;;;10.46;88.84;99515.28;5053660;28;19991;-88
2022/09/17 03:51:17;;;;;;;;;;;;;;;10.47;89.22;99511.50;5055072;28;20353;-88
2022/09/17 03:53:42;;;;;;;;;;;;;;;10.41;89.51;99509.00;5055333;28;20361;-89
2022/09/17 03:56:07;;;;;;;;;;;;;;;10.46;89.17;99511.75;5055006;28;19908;-89
2022/09/17 03:58:33;;;;;;;;;;;;;;;10.47;89.64;99516.13;5052299;28;19963;-88
2022/09/17 04:00:58;;;;;;;;;;;;;;;10.49;89.18;99514.78;5054663;28;19917;-89
2022/09/17 04:03:24;;;;;;;;;;;;;;;10.52;88.79;99524.31;5055280;28;19916;-89
2022/09/17 04:05:50;;;;;;;;;;;;;;;10.63;88.57;99519.72;5055280;28;19951;-89
2022/09/17 04:08:15;;;;;;;;;;;;;;;10.32;88.76;99508.72;5055277;28;19909;-88
2022/09/17 04:10:40;;;;;;;;;;;;;;;10.56;89.19;99514.50;5054034;28;19948;-88
2022/09/17 04:13:06;;;;;;;;;;;;;;;10.55;88.36;99518.34;5055058;28;19908;-88
2022/09/17 04:15:31;;;;;;;;;;;;;;;10.74;87.21;99515.88;5055170;28;19912;-89
2022/09/17 04:17:57;;;;;;;;;;;;;;;10.65;87.48;99511.25;5055414;28;20585;-89
2022/09/17 04:20:22;;;;;;;;;;;;;;;10.65;87.94;99511.25;5054310;28;19926;-89
2022/09/17 04:22:48;;;;;;;;;;;;;;;10.44;88.25;99513.91;5053914;28;19909;-88
2022/09/17 04:25:13;;;;;;;;;;;;;;;10.47;88.74;99522.41;5054996;28;19908;-89
2022/09/17 04:27:38;;;;;;;;;;;;;;;10.19;89.86;99526.41;5053936;28;19948;-89
2022/09/17 04:30:04;;;;;;;;;;;;;;;10.36;89.43;99518.81;5053290;28;20015;-88
2022/09/17 04:32:29;;;;;;;;;;;;;;;10.43;88.33;99523.19;5054938;28;20376;-89
2022/09/17 04:34:54;;;;;;;;;;;;;;;10.52;88.51;99521.59;5054669;28;19920;-89
2022/09/17 04:37:20;;;;;;;;;;;;;;;10.57;87.05;99527.06;5054584;28;20353;-89
2022/09/17 04:39:45;;;;;;;;;;;;;;;10.31;88.61;99518.81;5053915;28;19917;-89
2022/09/17 04:42:11;;;;;;;;;;;;;;;10.63;87.42;99525.16;5054710;28;19959;-88
2022/09/17 04:44:36;;;;;;;;;;;;;;;10.38;88.36;99524.81;5054175;28;19912;-89
2022/09/17 04:47:01;;;;;;;;;;;;;;;10.43;87.47;99534.09;5054506;28;19915;-88
2022/09/17 04:49:28;;;;;;;;;;;;;;;10.30;88.36;99530.78;5051115;28;19996;-89
2022/09/17 04:51:53;;;;;;;;;;;;;;;10.33;88.26;99532.97;5053372;28;19935;-89
2022/09/17 04:54:19;;;;;;;;;;;;;;;10.35;88.48;99525.34;5054585;28;20007;-90
2022/09/17 04:56:44;;;;;;;;;;;;;;;10.51;87.28;99542.56;5054343;28;19954;-88
2022/09/17 04:59:09;;;;;;;;;;;;;;;10.67;86.80;99537.16;5053470;28;19963;-88
2022/09/17 05:01:34;;;;;;;;;;;;;;;10.61;87.54;99533.63;5054331;28;19943;-88
2022/09/17 05:04:00;;;;;;;;;;;;;;;10.73;86.80;99532.53;5054241;28;19917;-89
2022/09/17 05:06:25;;;;;;;;;;;;;;;10.78;86.87;99537.97;5054374;28;20680;-89
2022/09/17 05:08:50;;;;;;;;;;;;;;;10.81;86.14;99537.44;5053326;28;19913;-88
2022/09/17 05:11:15;;;;;;;;;;;;;;;10.68;86.89;99543.44;5054171;28;20373;-89
2022/09/17 05:13:40;;;;;;;;;;;;;;;10.68;87.54;99549.69;5053768;28;19920;-89
2022/09/17 05:16:06;;;;;;;;;;;;;;;10.71;86.76;99546.44;5054043;28;20007;-90
2022/09/17 05:18:31;;;;;;;;;;;;;;;10.81;87.03;99559.25;5051112;28;19963;-88
2022/09/17 05:20:56;;;;;;;;;;;;;;;10.95;86.36;99556.00;5053966;28;19991;-89
2022/09/17 05:23:21;;;;;;;;;;;;;;;10.98;86.13;99552.72;5056269;28;19988;-88
2022/09/17 05:25:46;;;;;;;;;;;;;;;10.67;86.93;99558.16;5054928;28;19962;-89
2022/09/17 05:28:11;;;;;;;;;;;;;;;10.72;87.16;99556.25;5051020;28;19909;-88
2022/09/17 05:30:37;;;;;;;;;;;;;;;10.76;86.85;99556.50;5050586;28;19913;-89
2022/09/17 05:33:03;;;;;;;;;;;;;;;10.86;86.81;99564.72;5053847;28;19908;-89
2022/09/17 05:35:29;;;;;;;;;;;;;;;10.81;86.39;99570.16;5054133;28;19912;-89
2022/09/17 05:38:01;;;;;;;;;;;;;;;10.69;87.13;99567.69;5054039;28;19909;-89
2022/09/17 05:40:26;;;;;;;;;;;;;;;10.68;87.66;99559.81;5052403;28;19912;-89
2022/09/17 05:42:56;;;;;;;;;;;;;;;10.58;88.03;99566.84;5057677;28;19909;-88
2022/09/17 05:45:21;;;;;;;;;;;;;;;10.59;87.39;99563.06;5052345;28;19924;-89
2022/09/17 05:47:47;;;;;;;;;;;;;;;10.79;86.64;99556.00;5056081;28;20293;-88
2022/09/17 05:50:12;;;;;;;;;;;;;;;10.91;85.61;99552.16;5056102;28;19916;-89
2022/09/17 05:52:37;;;;;;;;;;;;;;;10.59;86.71;99557.59;5058100;28;19910;-89
2022/09/17 05:55:03;;;;;;;;;;;;;;;10.69;86.93;99558.69;5057870;28;19966;-88
2022/09/17 05:57:29;;;;;;;;;;;;;;;10.85;86.26;99563.09;5057901;28;19908;-89
2022/09/17 05:59:54;;;;;;;;;;;;;;;10.92;86.33;99570.19;5053821;28;19913;-89
2022/09/17 06:02:19;;;;;;;;;;;;;;;11.10;85.08;99568.81;5056142;28;20007;-88
2022/09/17 06:04:44;;;;;;;;;;;;;;;11.07;85.32;99567.44;5056438;28;20473;-88
2022/09/17 06:07:10;;;;;;;;;;;;;;;10.95;86.30;99580.53;5057650;28;19919;-88
2022/09/17 06:09:36;;;;;;;;;;;;;;;10.94;86.68;99584.38;5056269;28;19913;-89
2022/09/17 06:12:01;;;;;;;;;;;;;;;10.74;87.27;99580.50;5056306;28;19909;-89
2022/09/17 06:14:27;;;;;;;;;;;;;;;10.80;87.01;99590.34;5057612;28;19916;-90
2022/09/17 06:16:52;;;;;;;;;;;;;;;10.94;86.83;99584.38;5056540;28;19908;-90
2022/09/17 06:19:17;;;;;;;;;;;;;;;10.87;85.88;99592.81;5053701;28;19913;-89
2022/09/17 06:21:43;;;;;;;;;;;;;;;11.05;86.25;99602.38;5057082;28;19915;-89
2022/09/17 06:24:09;;;;;;;;;;;;;;;11.09;85.96;99597.19;5057162;28;19939;-89
2022/09/17 06:26:34;;;;;;;;;;;;;;;10.78;86.29;99602.63;5057304;28;19908;-89
2022/09/17 06:28:59;;;;;;;;;;;;;;;11.05;86.59;99602.38;5054570;28;20384;-90
2022/09/17 06:31:25;;;;;;;;;;;;;;;11.11;86.16;99605.91;5056790;28;19909;-89
2022/09/17 06:33:50;;;;;;;;;;;;;;;10.92;86.45;99606.44;5056295;28;19917;-89
2022/09/17 06:36:15;;;;;;;;;;;;;;;10.68;87.29;99609.66;5057032;28;19915;-89
2022/09/17 06:38:42;;;;;;;;;;;;;;;10.60;87.10;99608.28;5056297;28;20281;-88
2022/09/17 06:41:07;;;;;;;;;;;;;;;10.82;86.06;99612.69;5057026;28;19962;-89
2022/09/17 06:43:32;;;;;;;;;;;;;;;10.73;86.73;99623.34;5057008;28;19908;-90
2022/09/17 06:45:59;;;;;;;;;;;;;;;10.76;86.17;99604.78;5056909;28;20376;-89
2022/09/17 06:48:26;;;;;;;;;;;;;;;10.89;85.98;99617.06;5056617;28;19939;-89
2022/09/17 06:50:53;;;;;;;;;;;;;;;10.98;85.86;99612.75;5056951;28;19920;-90
2022/09/17 06:53:18;;;;;;;;;;;;;;;10.60;87.55;99623.81;5056105;28;19909;-90
2022/09/17 06:55:44;;;;;;;;;;;;;;;10.79;87.37;99629.63;5056588;28;19969;-89
2022/09/17 06:58:09;;;;;;;;;;;;;;;10.71;87.44;99617.34;5056318;28;20419;-89
2022/09/17 07:00:35;;;;;;;;;;;;;;;10.94;86.24;99623.34;5055798;28;19912;-89
2022/09/17 07:03:00;;;;;;;;;;;;;;;11.14;85.44;99626.38;5054075;28;19912;-89
2022/09/17 07:05:26;;;;;;;;;;;;;;;10.81;86.73;99618.44;5055671;28;19920;-90
2022/09/17 07:07:52;;;;;;;;;;;;;;;10.98;86.82;99618.19;5056383;28;19999;-90
2022/09/17 07:10:17;;;;;;;;;;;;;;;11.22;85.66;99631.31;5054535;28;19919;-89
2022/09/17 07:12:43;;;;;;;;;;;;;;;11.32;85.14;99628.56;5056294;28;19913;-90
2022/09/17 07:15:11;;;;;;;;;;;;;;;11.09;86.46;99621.72;5039719;28;19971;-90
2022/09/17 07:17:39;;;;;;;;;;;;;;;10.81;86.73;99621.16;5037092;28;19916;-90
2022/09/17 07:20:04;;;;;;;;;;;;;;;10.88;86.41;99629.09;5054596;28;19913;-91
2022/09/17 07:22:29;;;;;;;;;;;;;;;10.70;87.21;99617.59;5056162;28;19966;-89
2022/09/17 07:24:55;;;;;;;;;;;;;;;10.67;86.98;99629.88;5056176;28;20346;-90
2022/09/17 07:27:20;;;;;;;;;;;;;;;10.90;86.19;99621.47;5055712;28;19909;-90
2022/09/17 07:29:45;;;;;;;;;;;;;;;10.80;86.42;99616.81;5065004;28;19956;-91
2022/09/17 07:32:11;;;;;;;;;;;;;;;10.92;87.04;99611.88;5074430;28;20002;-92
2022/09/17 07:34:36;;;;;;;;;;;;;;;10.95;86.23;99618.72;5075205;28;19912;-91
2022/09/17 07:37:01;;;;;;;;;;;;;;;10.79;87.46;99621.44;5075794;28;20411;-89
2022/09/17 07:42:46;;;;;;;;;;;;;;;11.05;86.66;99616.00;5058470;28;20002;-89
2022/09/17 07:45:11;;;;;;;;;;;;;;;10.83;86.15;99614.34;5056068;28;19909;-88
2022/09/17 07:47:40;;;;;;;;;;;;;;;11.00;87.15;99624.19;5055557;28;20408;-86
2022/09/17 07:50:06;;;;;;;;;;;;;;;11.34;86.66;99622.84;5053112;28;19913;-81
2022/09/17 07:52:31;;;;;;;;;;;;;;;11.01;85.74;99616.81;5054833;28;20007;-90
2022/09/17 07:54:56;;;;;;;;;;;;;;;11.45;85.00;99623.66;5055316;28;20345;-92
2022/09/17 07:57:21;;;;;;;;;;;;;;;11.26;84.23;99626.94;5052467;28;19919;-92
2022/09/17 07:59:46;;;;;;;;;;;;;;;11.47;84.55;99624.19;5051094;28;19913;-93
2022/09/17 08:02:13;;;;;;;;;;;;;;;11.98;83.10;99617.00;5055387;28;19955;-88
2022/09/17 08:04:38;;;;;;;;;;;;;;;11.87;83.02;99621.69;5053836;28;19908;-91
2022/09/17 08:07:03;;;;;;;;;;;;;;;11.95;82.74;99612.09;5053524;28;19962;-89
2022/09/17 08:09:28;;;;;;;;;;;;;;;12.07;81.11;99614.50;5053363;28;20250;-90
2022/09/17 08:11:53;;;;;;;;;;;;;;;11.93;80.07;99624.38;5053388;28;20593;-89
2022/09/17 08:14:18;;;;;;;;;;;;;;;12.00;80.56;99623.00;5052594;28;20695;-90
2022/09/17 08:16:46;;;;;;;;;;;;;;;12.10;80.37;99621.34;5054086;28;19909;-90
2022/09/17 08:19:11;;;;;;;;;;;;;;;12.19;80.15;99625.16;5042334;28;19994;-90
2022/09/17 08:21:37;;;;;;;;;;;;;;;11.89;79.78;99624.97;5055073;28;19909;-90
2022/09/17 08:24:02;;;;;;;;;;;;;;;12.08;80.03;99626.28;5055047;28;19978;-79
2022/09/17 08:26:27;;;;;;;;;;;;;;;12.18;80.11;99631.75;5053765;28;19909;-78
2022/09/17 08:28:55;;;;;;;;;;;;;;;12.46;79.28;99625.88;5051568;28;21016;-86
2022/09/17 08:31:21;;;;;;;;;;;;;;;12.57;76.92;99626.66;5043209;28;20646;-91
2022/09/17 08:33:46;;;;;;;;;;;;;;;12.22;76.77;99630.09;5034688;28;20265;-91
2022/09/17 08:36:13;;;;;;;;;;;;;;;12.20;75.77;99618.59;5046035;28;19908;-91
2022/09/17 08:38:39;;;;;;;;;;;;;;;12.62;75.11;99618.41;5053833;28;20301;-91
2022/09/17 08:41:04;;;;;;;;;;;;;;;12.77;73.83;99627.63;5054275;28;19966;-92
2022/09/17 08:43:32;;;;;;;;;;;;;;;12.84;73.33;99630.84;5053286;28;20015;-92
2022/09/17 08:45:58;;;;;;;;;;;;;;;12.87;73.02;99630.31;5053268;28;19913;-92
2022/09/17 08:48:27;;;;;;;;;;;;;;;12.92;72.05;99633.00;5063961;28;20372;-92
2022/09/17 08:50:52;;;;;;;;;;;;;;;13.03;71.26;99630.19;5053362;28;19913;-91
2022/09/17 08:53:23;;;;;;;;;;;;;;;13.06;70.15;99638.63;5054211;28;19915;-92
2022/09/17 08:55:54;;;;;;;;;;;;;;;12.95;70.63;99643.38;5053272;28;19909;-92
2022/09/17 08:58:51;;;;;;;;;;;;;;;12.90;68.83;99637.09;5053269;28;19962;-92
2022/09/17 09:01:16;;;;;;;;;;;;;;;12.84;68.70;99630.84;5023141;28;19913;-93
2022/09/17 09:03:45;;;;;;;;;;;;;;;13.04;68.45;99618.13;5034358;28;19909;-93
2022/09/17 09:06:11;;;;;;;;;;;;;;;13.26;69.75;99631.38;5038913;28;19959;-92
2022/09/17 09:08:42;;;;;;;;;;;;;;;13.16;68.83;99621.31;5053307;28;20377;-92
2022/09/17 09:11:14;;;;;;;;;;;;;;;13.18;68.55;99630.06;5054611;28;19913;-92
2022/09/17 09:13:45;;;;;;;;;;;;;;;13.10;69.18;99619.72;5054293;28;19913;-92
2022/09/17 09:16:14;;;;;;;;;;;;;;;13.30;67.92;99620.69;5053495;28;19952;-93
2022/09/17 09:18:40;;;;;;;;;;;;;;;13.13;67.84;99616.44;5053258;28;19913;-92
2022/09/17 09:21:06;;;;;;;;;;;;;;;12.94;67.50;99625.31;5054214;28;19960;-91
2022/09/17 09:23:34;;;;;;;;;;;;;;;12.96;68.36;99628.59;5054267;28;19916;-93
2022/09/17 09:26:12;;;;;;;;;;;;;;;13.21;67.71;99630.59;5054417;28;19970;-89
2022/09/17 09:28:46;;;;;;;;;;;;;;;13.43;66.80;99624.66;5053350;28;20385;-91
2022/09/17 09:31:32;;;;;;;;;;;;;;;13.54;66.36;99625.44;5053858;28;20345;-90
2022/09/17 09:33:59;;;;;;;;;;;;;;;13.51;65.51;99620.47;5053711;28;20250;-89
2022/09/17 09:36:27;;;;;;;;;;;;;;;13.72;65.84;99620.31;5053814;28;19908;-90
2022/09/17 09:38:52;;;;;;;;;;;;;;;13.78;65.44;99621.91;5039196;28;19919;-90
2022/09/17 09:41:30;;;;;;;;;;;;;;;13.67;65.03;99617.66;5052583;28;20413;-90
2022/09/17 09:43:59;;;;;;;;;;;;;;;13.87;65.09;99619.34;5053548;28;19908;-90
2022/09/17 09:46:42;;;;;;;;;;;;;;;14.01;64.24;99622.22;5052137;28;19967;-88
2022/09/17 09:49:21;;;;;;;;;;;;;;;13.82;63.38;99609.25;5052063;28;19916;-89
2022/09/17 09:52:05;;;;;;;;;;;;;;;14.12;62.02;99625.63;5053399;28;19978;-90
2022/09/17 09:54:30;;;;;;;;;;;;;;;13.56;62.65;99612.25;5068998;28;20011;-91
2022/09/17 09:56:57;;;;;;;;;;;;;;;13.98;63.40;99611.81;5053287;28;20321;-90
2022/09/17 09:59:23;;;;;;;;;;;;;;;13.81;63.95;99623.25;5052528;28;20167;-89
2022/09/17 10:01:48;;;;;;;;;;;;;;;13.47;63.32;99627.63;5053534;28;19909;-90
2022/09/17 10:04:16;;;;;;;;;;;;;;;13.43;62.84;99616.44;5053394;28;19909;-89
2022/09/17 10:06:41;;;;;;;;;;;;;;;13.47;62.32;99620.25;5041736;28;19913;-89
2022/09/17 10:09:06;;;;;;;;;;;;;;;13.91;62.50;99614.94;5042530;28;19978;-86
2022/09/17 10:11:32;;;;;;;;;;;;;;;14.12;61.61;99607.28;5053693;28;19908;-89
2022/09/17 10:14:16;;;;;;;;;;;;;;;13.95;59.84;99607.72;5052958;28;19913;-89
2022/09/17 10:16:41;;;;;;;;;;;;;;;13.94;60.00;99606.13;5053010;28;20354;-89
2022/09/17 10:19:06;;;;;;;;;;;;;;;13.99;59.99;99608.00;5051952;28;19919;-89
2022/09/17 10:21:31;;;;;;;;;;;;;;;13.71;59.42;99602.25;5053445;28;19909;-89
2022/09/17 10:23:57;;;;;;;;;;;;;;;13.54;60.35;99598.88;5053174;28;19912;-89
2022/09/17 10:26:24;;;;;;;;;;;;;;;13.48;60.69;99615.59;5051988;28;19908;-89
2022/09/17 10:28:52;;;;;;;;;;;;;;;13.72;61.07;99607.44;5055914;28;19931;-89
2022/09/17 10:31:17;;;;;;;;;;;;;;;13.99;60.23;99608.00;5056370;28;19917;-89
2022/09/17 10:33:50;;;;;;;;;;;;;;;13.96;60.06;99608.56;5056609;28;20551;-89
2022/09/17 10:36:16;;;;;;;;;;;;;;;14.33;60.81;99596.06;5057027;28;19909;-89
2022/09/17 10:38:44;;;;;;;;;;;;;;;14.38;58.21;99594.38;5054909;28;19920;-89
2022/09/17 10:41:14;;;;;;;;;;;;;;;14.22;57.16;99586.31;5076909;28;20311;-89
2022/09/17 10:43:40;;;;;;;;;;;;;;;14.10;57.20;99582.09;5076636;28;19916;-89
2022/09/17 10:46:08;;;;;;;;;;;;;;;14.38;56.68;99580.66;5061797;28;19954;-89
2022/09/17 10:48:37;;;;;;;;;;;;;;;14.56;56.12;99585.31;5059234;28;20242;-89
2022/09/17 10:51:05;;;;;;;;;;;;;;;14.72;56.22;99585.09;5056156;28;20346;-89
2022/09/17 10:53:30;;;;;;;;;;;;;;;14.76;55.90;99575.19;5056512;28;20050;-90
2022/09/17 10:56:10;;;;;;;;;;;;;;;15.05;55.22;99576.13;5056251;28;19999;-90
2022/09/17 10:58:46;;;;;;;;;;;;;;;14.77;55.63;99586.94;5055757;28;19924;-90
2022/09/17 11:01:30;;;;;;;;;;;;;;;14.85;58.47;99583.56;5056364;28;19908;-89
2022/09/17 11:04:04;;;;;;;;;;;;;;;14.41;61.87;99596.50;5056297;28;20269;-89
2022/09/17 11:06:40;;;;;;;;;;;;;;;14.27;62.91;99602.72;5056370;28;20612;-91
2022/09/17 11:09:15;;;;;;;;;;;;;;;13.82;60.97;99606.53;5053679;28;19917;-80
2022/09/17 11:11:58;;;;;;;;;;;;;;;13.79;61.96;99620.78;5055536;28;19913;-79
2022/09/17 11:14:26;;;;;;;;;;;;;;;13.23;63.72;99631.13;5055329;28;19944;-82
2022/09/17 11:17:05;;;;;;;;;;;;;;;13.29;63.92;99630.00;5055309;28;20417;-92
2022/09/17 11:19:50;;;;;;;;;;;;;;;12.85;64.69;99621.56;5051771;28;19920;-92
2022/09/17 11:22:23;;;;;;;;;;;;;;;12.64;64.53;99632.63;5055933;28;19974;-88
2022/09/17 11:24:57;;;;;;;;;;;;;;;13.04;63.69;99640.00;5054603;28;19909;-89
2022/09/17 11:27:45;;;;;;;;;;;;;;;13.13;64.88;99653.91;5042948;28;19913;-94
2022/09/17 11:30:15;;;;;;;;;;;;;;;12.81;68.64;99653.31;5039446;28;19962;-80
2022/09/17 11:32:53;;;;;;;;;;;;;;;12.36;72.57;99654.91;5054895;28;20416;-88
2022/09/17 11:35:39;;;;;;;;;;;;;;;12.19;73.67;99655.22;5055631;28;19990;-89
2022/09/17 11:38:27;;;;;;;;;;;;;;;12.35;76.15;99633.28;5054739;28;19915;-89
2022/09/17 11:41:00;;;;;;;;;;;;;;;12.14;75.46;99630.66;5053515;28;20349;-88
2022/09/17 11:43:27;;;;;;;;;;;;;;;12.33;75.80;99619.09;5055291;28;19919;-89
2022/09/17 11:46:12;;;;;;;;;;;;;;;12.28;76.54;99609.00;5055576;28;19916;-89
2022/09/17 11:48:41;;;;;;;;;;;;;;;12.10;76.52;99618.63;5054075;28;20277;-89
2022/09/17 11:51:13;;;;;;;;;;;;;;;12.53;75.40;99612.69;5055485;28;19920;-87
2022/09/17 11:53:41;;;;;;;;;;;;;;;12.75;77.23;99611.50;5055587;28;19908;-89
2022/09/17 11:56:15;;;;;;;;;;;;;;;13.09;75.54;99612.63;5055723;28;19909;-89
2022/09/17 11:59:03;;;;;;;;;;;;;;;13.36;73.79;99603.13;5054442;28;19948;-89
2022/09/17 12:01:32;;;;;;;;;;;;;;;13.28;73.19;99606.47;5034869;28;19912;-89
2022/09/17 12:04:00;;;;;;;;;;;;;;;13.11;72.89;99612.34;5034820;28;19909;-89
2022/09/17 12:06:31;;;;;;;;;;;;;;;13.49;72.86;99595.31;5033066;28;19913;-89
2022/09/17 12:08:59;;;;;;;;;;;;;;;13.31;72.47;99611.34;5038342;28;19917;-89
2022/09/17 12:11:39;;;;;;;;;;;;;;;12.96;71.78;99606.69;5054524;28;19920;-88
2022/09/17 12:14:08;;;;;;;;;;;;;;;12.87;70.74;99605.69;5054715;28;20341;-89
2022/09/17 12:16:42;;;;;;;;;;;;;;;13.16;71.97;99607.63;5054772;28;20007;-89
2022/09/17 12:19:07;;;;;;;;;;;;;;;13.91;70.95;99594.94;5051764;28;19913;-89
2022/09/17 12:21:36;;;;;;;;;;;;;;;14.14;68.38;99603.44;5055138;28;19915;-89
2022/09/17 12:24:22;;;;;;;;;;;;;;;13.95;67.29;99595.97;5054602;28;19971;-88
2022/09/17 12:27:07;;;;;;;;;;;;;;;14.56;67.45;99596.28;5051186;28;19996;-89
2022/09/17 12:29:32;;;;;;;;;;;;;;;14.42;66.11;99600.88;5052967;28;20357;-89
2022/09/17 12:32:00;;;;;;;;;;;;;;;14.15;66.18;99602.31;5055061;28;19915;-89
2022/09/17 12:34:26;;;;;;;;;;;;;;;14.15;65.83;99596.84;5054511;28;19912;-89
2022/09/17 12:37:02;;;;;;;;;;;;;;;13.93;65.61;99599.00;5054878;28;20256;-89
2022/09/17 12:40:04;;;;;;;;;;;;;;;14.14;66.28;99604.22;5050688;28;19939;-89
2022/09/17 12:42:39;;;;;;;;;;;;;;;14.06;66.10;99597.47;4993291;28;19945;-89
2022/09/17 12:45:04;;;;;;;;;;;;;;;14.33;66.79;99587.00;5046253;28;19930;-89
2022/09/17 12:47:54;;;;;;;;;;;;;;;14.52;66.08;99578.78;5054209;28;20010;-88
2022/09/17 12:50:25;;;;;;;;;;;;;;;14.36;67.01;99589.97;5053070;28;19912;-90
2022/09/17 12:53:01;;;;;;;;;;;;;;;14.26;67.36;99584.63;5054742;28;19916;-89
2022/09/17 12:55:35;;;;;;;;;;;;;;;14.34;66.88;99581.22;5041894;28;19956;-89
2022/09/17 12:58:06;;;;;;;;;;;;;;;13.55;67.68;99577.75;5046660;28;19920;-88
2022/09/17 13:00:35;;;;;;;;;;;;;;;13.77;67.77;99569.03;5038653;28;19966;-80